ADDS TAF Data INFO
IDs: Format: Raw Decoded Include METARs

Data at: 2151 UTC 19 Feb 2018

KTEB 192051Z 19008KT 10SM OVC028 09/04 A3037 RMK AO2 SLP285 T00890044 56017

KTEB 192034Z 1921/2024 19007KT P6SM SCT025 BKN030
  FM192200 19004KT 4SM -RA BR BKN025 OVC040 WS020/21040KT
  FM200300 20003KT 5SM BR SCT006 OVC015 WS020/23035KT
  FM200700 21003KT 2SM BR BKN006 OVC015 WS020/23035KT
  FM201200 21004KT 3SM BR SCT006 BKN020
  FM201500 22006KT P6SM FEW010 SCT025 BKN250
  FM201700 22010KT P6SM SCT025 BKN250


KEWR 192051Z VRB04KT 5SM -DZ BKN018 OVC024 09/04 A3038 RMK AO2 DZB42 SLP287 P0000 60000 T00940039 56015

KEWR 192034Z 1921/2024 19009KT P6SM SCT025 BKN030
  FM192200 19006KT 4SM -RA BR BKN025 OVC040 WS020/21040KT
  FM200300 20005KT 5SM BR SCT006 OVC015 WS020/23035KT
  FM200700 21005KT 2SM BR BKN006 OVC015 WS020/23035KT
  FM201200 21006KT 4SM BR SCT006 BKN020
  FM201500 22008KT 6SM BR FEW010 SCT025 BKN250
  FM201700 22010KT P6SM SCT025 BKN250


KMMU 192145Z 29003KT 2SM DZ HZ OVC015 06/05 A3038

No TAF found for KMMU

KABE 192137Z 00000KT 2 1/2SM -RA BR BKN009 OVC015 05/03 A3035 RMK AO2 P0003 T00500028

KABE 191921Z 1919/2018 19006KT P6SM -SHRA OVC012
  FM192200 17006KT 6SM -SHRA BR OVC008 WS020/21035KT
  FM200000 VRB02KT 4SM BR VCSH OVC004 WS020/21040KT
  FM201300 VRB03KT 2SM -DZ BR BKN004 WS020/24030KT
  FM201400 VRB03KT P6SM BKN005


KSWF 192145Z VRB05KT 6SM -RA BR OVC020 05/04 A3034

KSWF 192034Z 1921/2024 20010KT P6SM SCT025 BKN030
  FM192200 20010KT 4SM -RA BR BKN025 OVC040
  FM200200 20003KT 5SM BR BKN006 OVC015
  FM200400 21003KT 2SM BR OVC005
  FM201200 21004KT 3SM BR BKN006 BKN020
  FM201500 22006KT P6SM FEW010 SCT025 BKN250 AMD NOT SKED